Time;durP1;ratioP1;P1;durP2;ratioP2;P2;SDS_P1;SDS_P2;PMS_P1;PMS_P2;Temp;Humidity;BMP_temperature;BMP_pressure;BME280_temperature;BME280_humidity;BME280_pressure;Samples;Min_cycle;Max_cycle;Signal;HPM_P1;HPM_P2
2022/08/10 00:00:48;;;;;;;2.23;1.90;;;;;;;21.88;36.83;100851.72;5016794;28;20213;-80
2022/08/10 00:03:13;;;;;;;4.40;2.30;;;;;;;21.90;36.52;100851.56;5033710;28;20189;-80
2022/08/10 00:05:39;;;;;;;3.27;2.40;;;;;;;21.88;36.72;100853.50;5014155;28;20716;-80
2022/08/10 00:08:04;;;;;;;3.97;2.20;;;;;;;21.76;36.95;100851.03;5014673;28;20182;-80
2022/08/10 00:10:29;;;;;;;5.63;2.00;;;;;;;21.77;36.73;100846.63;5012055;28;20255;-78
2022/08/10 00:12:55;;;;;;;5.30;2.50;;;;;;;21.75;36.89;100849.38;5044157;28;20688;-79
2022/08/10 00:15:22;;;;;;;3.53;2.17;;;;;;;21.72;36.79;100848.84;5020222;28;20597;-79
2022/08/10 00:17:48;;;;;;;3.07;2.17;;;;;;;21.66;36.79;100850.22;5013393;28;20183;-80
2022/08/10 00:20:13;;;;;;;4.07;2.00;;;;;;;21.68;37.05;100850.06;5007018;28;20202;-80
2022/08/10 00:22:39;;;;;;;7.77;2.20;;;;;;;21.73;37.11;100843.47;5021275;28;20323;-80
2022/08/10 00:25:05;;;;;;;4.20;2.33;;;;;;;21.77;36.77;100849.25;5013923;28;20649;-80
2022/08/10 00:27:31;;;;;;;7.43;2.23;;;;;;;21.74;37.00;100850.34;5012856;28;20186;-80
2022/08/10 00:29:57;;;;;;;8.20;2.37;;;;;;;21.64;36.97;100846.91;4999304;28;20211;-80
2022/08/10 00:32:23;;;;;;;5.23;2.33;;;;;;;21.55;37.15;100847.72;5036668;28;20748;-80
2022/08/10 00:34:48;;;;;;;4.77;2.60;;;;;;;21.60;37.06;100848.97;5013832;28;20186;-80
2022/08/10 00:37:18;;;;;;;8.10;2.60;;;;;;;21.55;37.20;100845.91;5014141;28;20187;-79
2022/08/10 00:39:45;;;;;;;2.83;2.10;;;;;;;21.58;36.89;100842.22;5014376;28;20565;-80
2022/08/10 00:42:12;;;;;;;3.80;1.90;;;;;;;21.55;37.39;100839.84;5037258;28;20316;-78
2022/08/10 00:44:40;;;;;;;6.77;2.50;;;;;;;21.55;37.23;100839.84;5012778;28;20241;-79
2022/08/10 00:47:06;;;;;;;3.40;2.10;;;;;;;21.54;37.09;100833.78;5014051;28;20237;-80
2022/08/10 00:49:32;;;;;;;2.73;2.20;;;;;;;21.52;36.88;100834.88;5024099;28;20214;-80
2022/08/10 00:51:58;;;;;;;7.50;2.30;;;;;;;21.45;37.11;100826.75;5034499;28;20315;-79
2022/08/10 00:54:24;;;;;;;11.67;2.60;;;;;;;21.45;37.29;100837.22;5015050;28;20217;-81
2022/08/10 00:56:49;;;;;;;5.93;2.10;;;;;;;21.42;37.56;100833.09;5013691;28;20534;-81
2022/08/10 00:59:16;;;;;;;3.07;2.43;;;;;;;21.47;37.47;100832.69;5011002;28;20298;-81
2022/08/10 01:01:41;;;;;;;6.83;2.90;;;;;;;21.47;37.30;100829.22;5019092;28;20217;-80
2022/08/10 01:04:06;;;;;;;2.73;2.20;;;;;;;21.33;37.68;100830.47;5018710;28;20179;-80
2022/08/10 01:06:58;;;;;;;2.53;2.33;;;;;;;21.27;37.69;100824.81;5013775;28;20292;-80
2022/08/10 01:09:51;;;;;;;6.57;2.10;;;;;;;21.30;37.42;100823.72;5012460;28;20190;-80
2022/08/10 01:12:22;;;;;;;6.77;2.13;;;;;;;21.22;37.81;100821.78;5047115;28;20240;-80
2022/08/10 01:15:00;;;;;;;8.13;2.67;;;;;;;21.19;37.84;100818.63;5018392;28;20192;-80
2022/08/10 01:17:42;;;;;;;5.07;2.03;;;;;;;21.16;38.11;100824.94;5017046;28;20194;-79
2022/08/10 01:20:25;;;;;;;2.67;2.10;;;;;;;21.15;38.16;100822.44;5004867;28;20197;-80
2022/08/10 01:23:08;;;;;;;2.50;2.30;;;;;;;21.17;38.16;100815.28;5039344;28;20175;-79
2022/08/10 01:25:46;;;;;;;5.33;2.03;;;;;;;21.19;38.14;100814.19;5012939;28;20179;-80
2022/08/10 01:28:27;;;;;;;3.57;2.10;;;;;;;21.12;38.25;100813.91;5013085;28;20547;-80
2022/08/10 01:30:55;;;;;;;3.07;2.47;;;;;;;21.15;38.46;100819.81;5012037;28;20232;-81
2022/08/10 01:33:20;;;;;;;5.10;2.37;;;;;;;21.13;38.18;100819.97;5030888;28;20210;-80
2022/08/10 01:35:54;;;;;;;4.93;2.50;;;;;;;21.02;38.26;100813.06;5012869;28;20210;-79
2022/08/10 01:38:25;;;;;;;4.17;2.37;;;;;;;21.03;38.67;100824.38;5012657;28;20252;-79
2022/08/10 01:40:55;;;;;;;6.33;2.60;;;;;;;20.95;38.63;100822.44;5016350;28;20696;-79
2022/08/10 01:43:26;;;;;;;2.93;2.30;;;;;;;20.78;38.99;100821.28;5020884;28;20183;-79
2022/08/10 01:45:55;;;;;;;5.87;2.40;;;;;;;20.83;39.03;100818.25;5012629;28;20198;-80
2022/08/10 01:48:32;;;;;;;4.20;2.30;;;;;;;20.76;39.17;100818.78;5022177;28;20192;-79
2022/08/10 01:51:25;;;;;;;5.23;2.53;;;;;;;20.80;39.11;100828.00;4999258;28;20231;-80
2022/08/10 01:53:59;;;;;;;2.40;2.20;;;;;;;20.76;39.25;100825.78;5015988;28;20194;-79
2022/08/10 01:56:27;;;;;;;3.37;2.40;;;;;;;20.84;38.96;100831.19;5010190;28;20194;-81
2022/08/10 01:58:57;;;;;;;2.20;1.80;;;;;;;20.76;39.38;100833.63;5010571;28;20248;-80
2022/08/10 02:01:26;;;;;;;3.93;2.27;;;;;;;20.62;39.70;100830.38;5023487;28;20232;-81
2022/08/10 02:03:55;;;;;;;3.93;2.50;;;;;;;20.71;39.35;100830.56;5022355;28;20262;-80
2022/08/10 02:06:23;;;;;;;4.63;2.60;;;;;;;20.80;39.04;100835.84;5012320;28;20318;-79
2022/08/10 02:08:50;;;;;;;5.27;2.83;;;;;;;20.74;39.31;100841.63;5011223;28;20702;-80
2022/08/10 02:11:18;;;;;;;4.27;2.67;;;;;;;20.62;39.76;100840.84;5018761;28;20232;-80
2022/08/10 02:13:45;;;;;;;3.90;2.17;;;;;;;20.71;39.46;100841.88;5031380;28;20221;-79
2022/08/10 02:16:11;;;;;;;4.90;2.40;;;;;;;20.66;39.86;100837.97;5024313;28;20222;-81
2022/08/10 02:18:39;;;;;;;2.97;2.07;;;;;;;20.54;39.97;100842.44;5011373;28;20183;-80
2022/08/10 02:21:06;;;;;;;6.33;2.37;;;;;;;20.51;40.40;100834.88;5018764;28;20583;-79
2022/08/10 02:23:34;;;;;;;3.40;2.07;;;;;;;20.46;40.83;100838.69;5026520;28;20244;-80
2022/08/10 02:26:02;;;;;;;5.90;2.30;;;;;;;20.15;41.18;100845.69;5011661;28;20657;-80
2022/08/10 02:28:30;;;;;;;3.87;2.30;;;;;;;20.19;41.35;100847.06;5012213;28;20178;-79
2022/08/10 02:31:00;;;;;;;4.83;2.23;;;;;;;20.26;40.96;100844.78;5016992;28;20719;-77
2022/08/10 02:33:27;;;;;;;3.97;2.37;;;;;;;20.20;41.61;100851.34;5028821;28;20194;-78
2022/08/10 02:35:54;;;;;;;4.53;2.17;;;;;;;20.11;42.07;100846.91;5010501;28;20175;-79
2022/08/10 02:38:46;;;;;;;4.67;2.13;;;;;;;20.06;41.55;100842.06;5010587;28;20330;-79
2022/08/10 02:41:38;;;;;;;3.13;2.13;;;;;;;20.11;41.30;100850.34;5011067;28;20232;-79
2022/08/10 02:44:17;;;;;;;4.80;2.40;;;;;;;20.11;41.61;100842.50;5010697;28;20187;-79
2022/08/10 02:46:51;;;;;;;4.90;2.30;;;;;;;19.99;41.53;100843.53;5012232;28;20178;-80
2022/08/10 02:49:21;;;;;;;4.70;2.67;;;;;;;20.10;41.47;100851.28;5050909;28;20214;-80
2022/08/10 02:51:57;;;;;;;2.73;2.53;;;;;;;20.02;41.64;100853.72;5029395;28;20299;-80
2022/08/10 02:54:29;;;;;;;3.77;2.77;;;;;;;20.00;41.91;100860.84;5010984;28;20552;-80
2022/08/10 02:57:07;;;;;;;2.93;2.27;;;;;;;20.01;41.89;100859.91;5012041;28;20179;-81
2022/08/10 02:59:41;;;;;;;5.80;2.20;;;;;;;20.02;41.59;100853.72;5027348;28;20706;-79
2022/08/10 03:02:12;;;;;;;5.20;2.30;;;;;;;20.08;41.66;100855.81;5023648;28;20239;-79
2022/08/10 03:04:45;;;;;;;4.07;2.30;;;;;;;20.06;41.76;100851.69;5011763;28;20178;-79
2022/08/10 03:07:15;;;;;;;3.90;2.50;;;;;;;19.97;42.44;100854.09;5011465;28;20713;-79
2022/08/10 03:09:41;;;;;;;2.50;2.30;;;;;;;20.05;42.03;100850.84;5011992;28;20199;-80
2022/08/10 03:12:09;;;;;;;5.97;2.50;;;;;;;20.07;41.79;100854.16;5045382;28;20282;-80
2022/08/10 03:14:37;;;;;;;4.77;2.73;;;;;;;19.98;42.14;100855.75;5017130;28;20536;-80
2022/08/10 03:17:04;;;;;;;3.43;2.23;;;;;;;19.93;42.18;100849.25;5025337;28;20724;-79
2022/08/10 03:19:32;;;;;;;2.93;2.10;;;;;;;19.98;42.26;100847.94;5009588;28;20228;-79
2022/08/10 03:21:58;;;;;;;3.97;2.37;;;;;;;19.81;42.80;100846.66;5032039;28;20286;-79
2022/08/10 03:24:25;;;;;;;2.83;2.43;;;;;;;19.86;42.41;100848.09;5010714;28;20237;-80
2022/08/10 03:26:53;;;;;;;6.17;2.70;;;;;;;19.76;42.92;100855.81;5011884;28;20542;-80
2022/08/10 03:29:20;;;;;;;5.70;2.87;;;;;;;19.93;42.32;100852.69;5019683;28;20202;-81
2022/08/10 03:31:46;;;;;;;2.80;2.40;;;;;;;19.90;42.82;100857.34;4982726;28;22508;-81
2022/08/10 03:34:13;;;;;;;5.17;2.70;;;;;;;19.74;43.43;100855.13;5013518;28;20641;-81
2022/08/10 03:36:39;;;;;;;8.37;2.60;;;;;;;19.77;43.10;100854.84;5015566;28;20270;-81
2022/08/10 03:39:04;;;;;;;5.77;2.40;;;;;;;19.70;44.24;100853.69;5013994;28;20262;-81
2022/08/10 03:41:35;;;;;;;4.27;2.47;;;;;;;19.65;43.46;100848.88;5019125;28;20671;-81
2022/08/10 03:44:02;;;;;;;2.93;2.13;;;;;;;19.61;44.20;100847.44;5017107;28;20175;-79
2022/08/10 03:46:29;;;;;;;2.70;2.37;;;;;;;19.50;44.76;100848.34;5014054;28;20186;-80
2022/08/10 03:48:59;;;;;;;3.13;2.40;;;;;;;19.34;45.22;100846.94;5024851;28;20304;-79
2022/08/10 03:51:25;;;;;;;7.63;2.70;;;;;;;19.39;45.00;100846.59;5017802;28;20217;-79
2022/08/10 03:53:51;;;;;;;4.70;2.53;;;;;;;19.28;45.45;100846.63;5022388;28;20244;-80
2022/08/10 03:56:17;;;;;;;5.50;2.80;;;;;;;19.13;45.72;100851.25;5014379;28;20178;-81
2022/08/10 03:58:43;;;;;;;2.80;2.50;;;;;;;19.21;45.73;100846.25;5013610;28;20183;-80
2022/08/10 04:01:09;;;;;;;4.97;2.50;;;;;;;19.15;48.33;100844.97;5016409;28;20703;-67
2022/08/10 04:03:35;;;;;;;5.23;2.30;;;;;;;19.30;46.86;100842.94;5028831;28;20179;-67
2022/08/10 04:06:00;;;;;;;4.00;2.53;;;;;;;19.43;45.68;100839.34;5014231;28;20236;-66
2022/08/10 04:08:27;;;;;;;3.93;2.53;;;;;;;19.38;45.95;100841.50;5013432;28;20221;-67
2022/08/10 04:10:52;;;;;;;3.23;2.57;;;;;;;19.35;45.71;100842.56;5013936;28;20299;-68
2022/08/10 04:13:17;;;;;;;6.47;2.30;;;;;;;19.36;46.47;100838.97;5034465;28;20236;-67
2022/08/10 04:15:43;;;;;;;3.50;2.50;;;;;;;19.30;46.63;100842.09;5021805;28;20175;-67
2022/08/10 04:18:08;;;;;;;4.17;2.50;;;;;;;19.17;47.65;100840.44;5014461;28;20233;-67
2022/08/10 04:20:43;;;;;;;6.07;2.73;;;;;;;19.27;46.88;100845.78;5012547;28;20720;-66
2022/08/10 04:23:14;;;;;;;5.80;2.73;;;;;;;19.22;47.43;100849.72;5019749;28;20187;-68
2022/08/10 04:25:40;;;;;;;4.83;2.80;;;;;;;19.11;48.37;100853.97;5012713;28;20182;-68
2022/08/10 04:28:10;;;;;;;8.30;2.80;;;;;;;19.24;47.37;100853.84;5013969;28;20179;-67
2022/08/10 04:30:36;;;;;;;3.67;2.87;;;;;;;19.26;47.24;100856.34;5010383;28;20222;-67
2022/08/10 04:33:04;;;;;;;4.23;2.40;;;;;;;19.20;47.38;100865.44;5024602;28;20270;-68
2022/08/10 04:35:31;;;;;;;5.97;2.90;;;;;;;19.03;48.43;100862.41;5013422;28;20218;-67
2022/08/10 04:37:59;;;;;;;5.80;2.93;;;;;;;19.14;47.90;100866.78;5012441;28;20704;-74
2022/08/10 04:40:25;;;;;;;4.90;2.60;;;;;;;18.81;49.21;100863.22;5008340;28;20233;-67
2022/08/10 04:42:50;;;;;;;4.67;2.90;;;;;;;18.91;49.35;100867.75;5026462;28;20916;-67
2022/08/10 04:45:16;;;;;;;5.10;2.70;;;;;;;18.86;50.04;100868.06;5011880;28;20190;-69
2022/08/10 04:47:41;;;;;;;4.20;2.60;;;;;;;18.92;50.02;100874.63;5015786;28;20189;-67
2022/08/10 04:50:07;;;;;;;5.70;2.83;;;;;;;18.85;51.41;100874.22;5010113;28;20685;-68
2022/08/10 04:52:32;;;;;;;7.50;3.03;;;;;;;18.83;51.07;100876.16;5044513;28;20175;-67
2022/08/10 04:54:58;;;;;;;7.40;3.33;;;;;;;19.08;50.26;100880.31;5013812;28;20622;-67
2022/08/10 04:57:23;;;;;;;4.27;2.70;;;;;;;19.13;50.66;100872.94;5012505;28;20179;-67
2022/08/10 04:59:48;;;;;;;6.57;3.37;;;;;;;19.01;51.30;100874.75;5013831;28;20274;-67
2022/08/10 05:02:14;;;;;;;3.93;2.93;;;;;;;19.27;50.12;100876.25;5035743;28;20264;-67
2022/08/10 05:04:41;;;;;;;3.77;2.70;;;;;;;19.32;50.43;100874.91;5011810;28;20179;-68
2022/08/10 05:07:14;;;;;;;6.43;3.23;;;;;;;19.41;49.60;100876.00;5012038;28;20369;-68
2022/08/10 05:09:40;;;;;;;4.20;2.63;;;;;;;19.44;50.01;100880.94;5006691;28;20215;-67
2022/08/10 05:12:07;;;;;;;3.77;3.07;;;;;;;19.43;49.85;100879.28;5038747;28;20236;-69
2022/08/10 05:14:32;;;;;;;6.03;3.23;;;;;;;19.22;52.05;100883.63;5014221;28;20178;-67
2022/08/10 05:16:58;;;;;;;4.50;2.87;;;;;;;19.44;49.55;100883.56;5013430;28;20186;-68
2022/08/10 05:19:23;;;;;;;4.50;2.90;;;;;;;19.52;51.27;100878.56;5013345;28;20708;-68
2022/08/10 05:21:48;;;;;;;6.17;2.63;;;;;;;19.51;48.93;100876.06;5031189;28;20552;-67
2022/08/10 05:24:14;;;;;;;3.60;3.10;;;;;;;19.79;49.51;100882.50;5016516;28;20183;-67
2022/08/10 05:26:39;;;;;;;3.23;2.87;;;;;;;19.86;47.28;100882.88;5013248;28;20257;-67
2022/08/10 05:29:04;;;;;;;4.07;2.50;;;;;;;20.06;49.20;100880.41;5013058;28;20203;-67
2022/08/10 05:31:29;;;;;;;5.47;2.60;;;;;;;20.14;45.04;100880.59;5017147;28;20617;-68
2022/08/10 05:33:55;;;;;;;6.20;2.80;;;;;;;20.31;44.39;100880.00;5021204;28;20697;-67
2022/08/10 05:36:21;;;;;;;4.47;2.80;;;;;;;20.60;42.82;100881.13;5012829;28;20705;-67
2022/08/10 05:38:48;;;;;;;2.90;2.57;;;;;;;20.65;44.08;100881.56;5011800;28;20190;-68
2022/08/10 05:41:15;;;;;;;5.37;2.70;;;;;;;20.93;42.61;100885.28;5014576;28;20225;-68
2022/08/10 05:43:40;;;;;;;5.27;2.83;;;;;;;20.89;42.74;100883.09;5018213;28;20191;-68
2022/08/10 05:46:06;;;;;;;5.00;2.50;;;;;;;21.02;42.41;100878.44;5012381;28;20187;-70
2022/08/10 05:48:31;;;;;;;5.67;2.90;;;;;;;21.25;41.55;100889.53;5015904;28;20270;-68
2022/08/10 05:50:57;;;;;;;5.70;2.73;;;;;;;21.44;41.02;100887.91;5037381;28;20238;-67
2022/08/10 05:53:22;;;;;;;6.50;2.87;;;;;;;21.49;40.91;100883.09;5011682;28;20270;-68
2022/08/10 05:55:48;;;;;;;4.07;2.57;;;;;;;21.53;40.67;100881.88;5010835;28;20179;-68
2022/08/10 05:58:13;;;;;;;6.60;2.17;;;;;;;21.67;40.92;100877.22;5011127;28;20175;-68
2022/08/10 06:00:41;;;;;;;4.90;2.93;;;;;;;21.83;40.15;100880.13;5012115;28;20769;-68
2022/08/10 06:03:09;;;;;;;5.97;2.90;;;;;;;21.92;40.39;100884.53;5034359;28;20182;-68
2022/08/10 06:05:39;;;;;;;7.87;2.80;;;;;;;21.97;39.87;100878.88;5010572;28;20697;-67
2022/08/10 06:08:14;;;;;;;4.23;2.03;;;;;;;21.92;39.91;100888.94;5044142;28;20264;-67
2022/08/10 06:10:42;;;;;;;5.87;3.00;;;;;;;21.92;39.73;100881.09;5009041;28;20649;-67
2022/08/10 06:15:55;;;;;;;6.97;2.40;;;;;;;21.97;39.80;100881.50;5025340;28;20635;-67
2022/08/10 06:18:21;;;;;;;3.20;2.33;;;;;;;22.09;39.59;100888.22;5010905;28;20178;-67
2022/08/10 06:20:48;;;;;;;6.33;2.63;;;;;;;22.38;39.80;100883.94;5020736;28;20225;-68
2022/08/10 06:23:14;;;;;;;4.70;2.67;;;;;;;22.48;39.11;100887.34;5011098;28;20223;-68
2022/08/10 06:25:40;;;;;;;6.93;2.50;;;;;;;22.39;38.78;100889.03;5010904;28;20202;-68
2022/08/10 06:28:08;;;;;;;5.80;2.30;;;;;;;22.55;38.61;100890.22;5011791;28;20257;-67
2022/08/10 06:30:34;;;;;;;7.00;2.80;;;;;;;22.61;38.52;100894.06;5007850;28;20233;-68
2022/08/10 06:33:03;;;;;;;3.40;2.50;;;;;;;22.78;38.11;100889.88;5023015;28;20178;-68
2022/08/10 06:35:31;;;;;;;4.03;2.67;;;;;;;22.85;37.75;100897.03;5009913;28;20194;-68
2022/08/10 06:38:00;;;;;;;6.33;2.40;;;;;;;22.98;37.67;100896.69;5010226;28;20613;-72
2022/08/10 06:40:28;;;;;;;4.50;2.57;;;;;;;23.26;37.22;100899.34;5006562;28;21095;-67
2022/08/10 06:42:57;;;;;;;8.33;2.30;;;;;;;23.43;36.79;100896.88;5023070;28;20209;-67
2022/08/10 06:45:28;;;;;;;4.93;3.00;;;;;;;23.79;35.86;100902.13;5007619;28;20167;-68
2022/08/10 06:48:02;;;;;;;7.07;2.53;;;;;;;24.28;34.52;100894.66;5009780;28;20187;-71
2022/08/10 06:50:39;;;;;;;9.43;3.10;;;;;;;25.47;32.53;100904.59;5010748;28;20297;-78
2022/08/10 06:53:11;;;;;;;6.10;2.83;;;;;;;25.72;31.59;100902.81;5034412;28;20178;-80
2022/08/10 06:55:41;;;;;;;2.70;2.40;;;;;;;26.20;31.50;100903.00;5010037;28;20186;-78
2022/08/10 06:58:07;;;;;;;6.43;2.20;;;;;;;27.16;29.61;100906.47;5009763;28;20189;-77
2022/08/10 07:00:36;;;;;;;5.47;2.80;;;;;;;27.86;28.73;100914.47;4994926;28;20317;-79
2022/08/10 07:03:08;;;;;;;9.00;2.58;;;;;;;28.31;28.15;100912.75;5022037;28;20195;-79
2022/08/10 07:05:36;;;;;;;3.50;2.63;;;;;;;28.95;27.23;100908.75;5009062;28;20317;-76
2022/08/10 07:08:02;;;;;;;12.18;2.80;;;;;;;29.08;26.71;100905.41;5014764;28;20197;-80
2022/08/10 07:10:28;;;;;;;3.50;2.22;;;;;;;27.19;28.83;100916.69;5015333;28;20284;-80
2022/08/10 07:12:56;;;;;;;5.10;2.28;;;;;;;28.18;28.18;100912.53;5048476;28;20662;-80
2022/08/10 07:15:24;;;;;;;5.63;2.47;;;;;;;28.41;27.62;100915.13;5014524;28;20193;-79
2022/08/10 07:17:51;;;;;;;8.20;2.00;;;;;;;27.99;27.84;100927.06;5030549;28;20197;-76
2022/08/10 07:20:18;;;;;;;7.85;2.50;;;;;;;28.12;28.02;100910.63;5010832;28;20546;-75
2022/08/10 07:22:50;;;;;;;4.30;2.30;;;;;;;28.95;26.57;100919.34;5042648;28;20576;-79
2022/08/10 07:25:20;;;;;;;3.45;2.53;;;;;;;28.34;27.67;100917.69;5015792;28;20198;-79
2022/08/10 07:27:46;;;;;;;3.55;2.33;;;;;;;28.64;27.55;100909.75;5014530;28;20704;-82
2022/08/10 07:30:12;;;;;;;4.95;2.33;;;;;;;29.30;26.47;100919.56;4985971;28;20717;-80
2022/08/10 07:32:39;;;;;;;4.25;2.20;;;;;;;30.26;25.15;100914.88;5025470;28;20278;-81
2022/08/10 07:35:07;;;;;;;4.85;2.55;;;;;;;30.70;24.54;100913.72;5010812;28;20183;-79
2022/08/10 07:37:34;;;;;;;5.82;3.60;;;;;;;30.90;23.81;100915.66;5013854;28;20179;-81
2022/08/10 07:40:02;;;;;;;3.10;2.20;;;;;;;30.70;24.16;100919.03;5013431;28;20185;-79
2022/08/10 07:42:30;;;;;;;2.75;2.17;;;;;;;30.19;24.89;100916.66;4986901;28;20221;-77
2022/08/10 07:44:55;;;;;;;3.33;1.88;;;;;;;29.34;26.08;100922.66;5011690;28;20225;-80
2022/08/10 07:47:45;;;;;;;9.02;2.30;;;;;;;29.36;25.79;100923.28;5016079;28;20556;-80
2022/08/10 07:50:13;;;;;;;3.13;2.08;;;;;;;29.17;26.51;100926.50;5006853;28;20282;-80
2022/08/10 07:52:39;;;;;;;4.10;2.40;;;;;;;28.96;26.59;100923.63;5028728;28;20656;-80
2022/08/10 07:55:07;;;;;;;9.55;2.40;;;;;;;29.32;26.06;100924.66;5013134;28;20179;-78
2022/08/10 07:57:36;;;;;;;6.72;2.40;;;;;;;30.13;25.24;100928.03;5014556;28;20174;-79
2022/08/10 08:00:06;;;;;;;4.10;2.13;;;;;;;30.85;24.37;100937.47;5013730;28;20236;-74
2022/08/10 08:02:38;;;;;;;9.15;2.25;;;;;;;29.83;25.49;100928.19;5019242;28;20218;-78
2022/08/10 08:05:07;;;;;;;3.83;2.00;;;;;;;30.02;25.53;100929.38;5014131;28;20615;-79
2022/08/10 08:07:35;;;;;;;5.28;2.00;;;;;;;30.52;24.89;100924.84;5014264;28;20214;-76
2022/08/10 08:10:02;;;;;;;7.43;2.13;;;;;;;31.38;23.42;100928.91;5014257;28;20199;-78
2022/08/10 08:12:29;;;;;;;4.60;1.60;;;;;;;32.16;22.95;100929.34;5011889;28;20707;-77
2022/08/10 08:14:57;;;;;;;3.17;2.10;;;;;;;30.16;24.73;100935.63;5020286;28;20181;-78
2022/08/10 08:17:25;;;;;;;7.80;2.30;;;;;;;29.74;25.86;100938.13;5016281;28;20178;-76
2022/08/10 08:19:51;;;;;;;4.05;2.30;;;;;;;29.98;25.35;100930.78;5014186;28;20604;-75
2022/08/10 08:22:18;;;;;;;9.93;2.20;;;;;;;30.99;24.60;100932.22;5018675;28;21092;-76
2022/08/10 08:24:44;;;;;;;3.58;1.95;;;;;;;30.92;24.62;100932.19;5012139;28;20179;-75
2022/08/10 08:27:13;;;;;;;3.05;1.85;;;;;;;31.79;23.40;100945.75;5012807;28;20187;-77
2022/08/10 08:29:40;;;;;;;4.68;2.20;;;;;;;31.85;23.33;100928.97;5012365;28;20199;-78
2022/08/10 08:32:06;;;;;;;5.15;2.00;;;;;;;30.99;24.01;100926.91;5036040;28;20217;-80
2022/08/10 08:34:35;;;;;;;3.60;1.98;;;;;;;31.10;23.78;100930.84;5012294;28;20293;-76
2022/08/10 08:37:02;;;;;;;4.90;1.90;;;;;;;31.80;22.98;100925.28;5012231;28;20183;-77
2022/08/10 08:39:30;;;;;;;8.30;1.88;;;;;;;32.37;22.86;100928.31;5012211;28;20186;-76
2022/08/10 08:42:02;;;;;;;5.97;2.13;;;;;;;31.99;23.20;100921.78;5033685;28;20228;-79
2022/08/10 08:44:46;;;;;;;3.53;1.75;;;;;;;31.68;23.25;100925.88;5013954;28;20252;-78
2022/08/10 08:47:35;;;;;;;3.03;2.00;;;;;;;31.26;23.67;100919.88;5013768;28;20186;-78
2022/08/10 08:50:33;;;;;;;4.43;2.05;;;;;;;31.17;24.11;100924.56;5024795;28;20321;-78
2022/08/10 08:53:36;;;;;;;3.90;2.45;;;;;;;30.25;24.95;100914.06;5010785;28;20347;-78
2022/08/10 08:56:11;;;;;;;4.95;2.38;;;;;;;31.68;23.89;100917.06;4989928;28;20223;-79
2022/08/10 08:58:57;;;;;;;6.95;2.42;;;;;;;32.51;22.76;100923.75;5013300;28;20995;-78
2022/08/10 09:01:41;;;;;;;3.25;2.20;;;;;;;31.97;22.67;100928.34;5028197;28;20226;-77
2022/08/10 09:04:27;;;;;;;7.07;2.22;;;;;;;31.97;22.79;100923.03;5015868;28;20269;-80
2022/08/10 09:07:21;;;;;;;3.30;1.92;;;;;;;32.04;22.92;100926.50;5004137;28;20269;-78
2022/08/10 09:10:00;;;;;;;2.80;2.00;;;;;;;33.01;21.88;100920.53;5011850;28;20202;-79
2022/08/10 09:13:00;;;;;;;2.75;2.17;;;;;;;33.65;21.22;100920.53;5020374;28;20237;-79
2022/08/10 09:15:32;;;;;;;6.13;2.40;;;;;;;33.95;20.57;100918.06;5014976;28;20181;-77
2022/08/10 09:18:09;;;;;;;3.85;2.10;;;;;;;33.26;21.82;100915.25;5012792;28;20183;-77
2022/08/10 09:20:48;;;;;;;5.90;1.95;;;;;;;32.71;22.35;100912.22;5009884;28;20249;-79
2022/08/10 09:23:27;;;;;;;10.98;1.75;;;;;;;32.63;22.58;100907.94;5029772;28;20182;-82
2022/08/10 09:26:02;;;;;;;6.95;2.20;;;;;;;32.38;22.73;100910.50;5012376;28;20191;-77
2022/08/10 09:28:36;;;;;;;4.82;2.05;;;;;;;33.14;21.99;100900.97;5012843;28;20614;-79
2022/08/10 09:31:05;;;;;;;3.90;2.20;;;;;;;33.70;21.35;100898.53;5017853;28;20229;-80
2022/08/10 09:33:43;;;;;;;5.60;2.58;;;;;;;33.17;21.55;100905.03;5018625;28;20182;-77
2022/08/10 09:36:28;;;;;;;6.07;2.33;;;;;;;32.53;22.40;100899.59;5010671;28;20182;-77
2022/08/10 09:39:06;;;;;;;4.43;1.90;;;;;;;32.54;22.69;100901.22;5010484;28;20626;-78
2022/08/10 09:41:32;;;;;;;4.40;1.67;;;;;;;33.00;21.35;100902.91;5026117;28;20225;-77
2022/08/10 09:44:13;;;;;;;4.28;1.63;;;;;;;33.86;21.26;100891.88;5020637;28;20195;-77
2022/08/10 09:46:58;;;;;;;6.20;1.40;;;;;;;34.19;20.00;100891.53;5012847;28;20209;-79
2022/08/10 09:49:48;;;;;;;2.58;1.90;;;;;;;34.13;19.71;100889.75;5016340;28;20203;-80
2022/08/10 09:52:23;;;;;;;1.92;1.63;;;;;;;34.40;19.76;100889.50;5019377;28;20221;-77
2022/08/10 09:54:51;;;;;;;5.90;2.17;;;;;;;33.73;20.88;100885.59;5011165;28;20281;-80
2022/08/10 09:57:48;;;;;;;4.20;1.95;;;;;;;34.02;20.13;100882.47;5011328;28;20194;-78
2022/08/10 10:00:17;;;;;;;3.60;1.75;;;;;;;35.20;18.84;100875.09;5003678;28;20221;-77
2022/08/10 10:03:07;;;;;;;6.57;2.20;;;;;;;34.88;18.44;100866.50;5039272;28;20183;-76
2022/08/10 10:05:45;;;;;;;7.00;1.80;;;;;;;33.35;20.43;100870.50;5009582;28;20237;-78
2022/08/10 10:08:31;;;;;;;3.15;1.80;;;;;;;32.45;21.03;100868.69;5009848;28;20178;-76
2022/08/10 10:11:06;;;;;;;5.88;1.40;;;;;;;34.65;19.46;100867.22;5012380;28;20696;-75
2022/08/10 10:13:45;;;;;;;4.25;1.83;;;;;;;34.24;19.59;100867.66;5013427;28;20305;-77
2022/08/10 10:16:25;;;;;;;7.07;1.80;;;;;;;33.79;20.05;100858.03;5018519;28;20190;-76
2022/08/10 10:19:06;;;;;;;2.65;1.50;;;;;;;35.68;18.41;100870.63;5010982;28;20184;-73
2022/08/10 10:21:48;;;;;;;2.72;1.73;;;;;;;33.30;19.65;100863.16;5036664;28;20230;-74
2022/08/10 10:24:26;;;;;;;4.35;1.65;;;;;;;34.61;18.64;100863.34;5008137;28;20256;-74
2022/08/10 10:27:00;;;;;;;2.38;1.58;;;;;;;34.67;18.58;100849.91;5012056;28;20193;-73
2022/08/10 10:29:48;;;;;;;6.35;1.90;;;;;;;35.82;17.99;100855.13;5011891;28;20202;-74
2022/08/10 10:32:32;;;;;;;1.75;1.60;;;;;;;35.53;17.94;100854.22;5020353;28;20410;-74
2022/08/10 10:35:19;;;;;;;9.55;2.10;;;;;;;35.48;17.74;100851.44;5011129;28;20193;-74
2022/08/10 10:37:46;;;;;;;3.53;1.90;;;;;;;34.13;19.10;100844.38;5008060;28;20202;-75
2022/08/10 10:40:14;;;;;;;6.57;2.15;;;;;;;33.43;20.00;100848.09;5001605;28;20910;-74
2022/08/10 10:42:42;;;;;;;2.60;1.83;;;;;;;32.81;20.22;100846.84;5040349;28;20260;-73
2022/08/10 10:45:26;;;;;;;3.17;1.83;;;;;;;33.27;20.08;100839.56;5009050;28;20191;-73
2022/08/10 10:48:15;;;;;;;2.88;1.90;;;;;;;31.18;21.61;100837.66;5017203;28;20177;-73
2022/08/10 10:50:58;;;;;;;4.40;1.90;;;;;;;30.66;22.91;100830.16;5013079;28;20225;-74
2022/08/10 10:53:38;;;;;;;2.38;2.13;;;;;;;29.75;23.55;100823.91;5017688;28;20186;-73
2022/08/10 10:56:24;;;;;;;4.30;2.20;;;;;;;28.93;24.88;100820.72;5010870;28;20190;-73
2022/08/10 10:59:01;;;;;;;5.05;2.15;;;;;;;28.73;24.84;100820.50;5011424;28;20210;-74
2022/08/10 11:01:59;;;;;;;2.60;1.88;;;;;;;29.04;24.39;100811.47;4995811;28;20241;-72
2022/08/10 11:04:44;;;;;;;3.90;1.92;;;;;;;29.25;24.47;100804.50;5009509;28;20182;-76
2022/08/10 11:07:33;;;;;;;7.30;1.67;;;;;;;29.41;24.37;100822.84;5010887;28;20301;-71
2022/08/10 11:10:05;;;;;;;4.60;2.17;;;;;;;28.87;24.22;100796.84;5015504;28;20499;-73
2022/08/10 11:12:56;;;;;;;3.30;1.80;;;;;;;29.28;23.80;100796.19;4991325;28;20690;-73
2022/08/10 11:15:30;;;;;;;6.43;2.00;;;;;;;29.33;23.92;100804.41;5012263;28;20299;-73
2022/08/10 11:18:01;;;;;;;5.70;2.30;;;;;;;28.89;24.50;100790.34;5037868;28;20252;-73
2022/08/10 11:20:41;;;;;;;3.67;1.92;;;;;;;28.94;24.80;100793.25;5012070;28;20580;-75
2022/08/10 11:23:25;;;;;;;7.18;2.50;;;;;;;29.14;24.38;100798.72;5010233;28;20178;-77
2022/08/10 11:26:06;;;;;;;6.10;2.17;;;;;;;29.48;24.21;100790.28;5011462;28;20648;-74
2022/08/10 11:28:50;;;;;;;2.65;1.90;;;;;;;28.93;24.76;100788.94;5006673;28;20182;-74
2022/08/10 11:31:30;;;;;;;2.15;1.80;;;;;;;28.71;25.60;100788.09;4985385;28;20288;-75
2022/08/10 11:34:09;;;;;;;3.83;2.15;;;;;;;28.65;25.22;100794.09;5004298;28;20265;-73
2022/08/10 11:36:45;;;;;;;2.47;2.10;;;;;;;29.06;25.17;100787.44;5011423;28;20240;-73
2022/08/10 11:39:30;;;;;;;4.65;1.95;;;;;;;29.09;25.26;100784.44;5000820;28;20214;-75
2022/08/10 11:42:03;;;;;;;3.67;1.90;;;;;;;28.69;25.20;100781.34;5032183;28;20263;-76
2022/08/10 11:44:30;;;;;;;3.00;1.48;;;;;;;28.86;25.45;100784.59;5011572;28;20207;-73
2022/08/10 11:47:09;;;;;;;3.67;1.60;;;;;;;28.69;25.63;100782.19;5012487;28;20202;-73